createdAt,value
2023-03-13T00:01:21.357Z,13.90
2023-03-13T00:06:24.605Z,13.90
2023-03-13T00:11:27.064Z,14.10
2023-03-13T00:16:29.753Z,14.00
2023-03-13T00:21:32.117Z,13.90
2023-03-13T00:26:34.221Z,14.10
2023-03-13T00:31:36.383Z,14.30
2023-03-13T00:36:38.360Z,14.30
2023-03-13T00:41:40.626Z,14.40
2023-03-13T00:46:42.596Z,14.40
2023-03-13T00:51:44.606Z,14.50
2023-03-13T00:56:46.613Z,14.30
2023-03-13T01:01:48.687Z,14.50
2023-03-13T01:06:50.746Z,14.50
2023-03-13T01:11:52.760Z,14.50
2023-03-13T01:16:54.777Z,14.40
2023-03-13T01:21:56.799Z,14.40
2023-03-13T01:26:59.676Z,14.30
2023-03-13T01:32:01.673Z,14.40
2023-03-13T01:37:03.755Z,14.20
2023-03-13T01:42:05.982Z,14.00
2023-03-13T01:47:08.114Z,14.10
2023-03-13T01:52:13.082Z,14.10
2023-03-13T01:57:28.589Z,14.10
2023-03-13T02:02:30.936Z,14.10
2023-03-13T02:07:45.817Z,14.10
2023-03-13T02:12:48.296Z,14.10
2023-03-13T02:17:50.691Z,14.10
2023-03-13T02:23:01.998Z,14.30
2023-03-13T02:28:06.346Z,14.10
2023-03-13T02:33:08.657Z,14.20
2023-03-13T02:38:13.389Z,14.10
2023-03-13T02:43:18.236Z,14.20
2023-03-13T02:48:30.360Z,14.50
2023-03-13T02:53:33.512Z,14.20
2023-03-13T02:58:49.235Z,14.10
2023-03-13T03:03:52.951Z,14.40
2023-03-13T03:08:55.212Z,14.30
2023-03-13T03:13:57.873Z,14.10
2023-03-13T03:19:01.235Z,14.30
2023-03-13T03:24:03.658Z,14.40
2023-03-13T03:29:05.757Z,14.20
2023-03-13T03:34:07.946Z,14.20
2023-03-13T03:39:10.635Z,14.20
2023-03-13T03:49:15.248Z,14.10
2023-03-13T03:54:17.392Z,14.30
2023-03-13T03:59:19.455Z,13.90
2023-03-13T04:04:21.778Z,13.90
2023-03-13T04:09:25.018Z,14.10
2023-03-13T04:14:27.237Z,13.80
2023-03-13T04:19:29.901Z,13.80
2023-03-13T04:24:32.519Z,13.80
2023-03-13T04:29:35.106Z,13.80
2023-03-13T04:34:37.878Z,13.80
2023-03-13T04:39:40.374Z,13.90
2023-03-13T04:44:43.764Z,13.90
2023-03-13T04:49:46.158Z,14.10
2023-03-13T04:54:50.959Z,14.00
2023-03-13T04:59:53.086Z,14.00
2023-03-13T05:04:55.739Z,14.10
2023-03-13T05:09:59.545Z,14.00
2023-03-13T05:15:06.249Z,14.20
2023-03-13T05:20:11.171Z,14.20
2023-03-13T05:25:13.671Z,14.10
2023-03-13T05:30:16.318Z,14.20
2023-03-13T05:35:18.599Z,14.60
2023-03-13T05:40:20.998Z,14.50
2023-03-13T05:45:23.088Z,14.50
2023-03-13T05:50:25.462Z,14.70
2023-03-13T05:55:27.721Z,14.60
2023-03-13T06:00:29.828Z,14.80
2023-03-13T06:05:32.208Z,14.90
2023-03-13T06:10:35.038Z,14.90
2023-03-13T06:15:37.109Z,15.00
2023-03-13T06:20:42.537Z,15.00
2023-03-13T06:25:47.109Z,15.10
2023-03-13T06:30:49.098Z,15.30
2023-03-13T06:35:56.624Z,15.20
2023-03-13T06:40:58.832Z,15.20
2023-03-13T06:46:05.200Z,15.30
2023-03-13T06:51:11.016Z,15.30
2023-03-13T06:56:12.973Z,15.40
2023-03-13T07:01:16.391Z,15.30
2023-03-13T07:06:18.773Z,15.30
2023-03-13T07:11:20.879Z,15.80
2023-03-13T07:16:23.334Z,15.60
2023-03-13T07:21:25.510Z,15.70
2023-03-13T07:26:27.581Z,15.70
2023-03-13T07:31:33.815Z,15.70
2023-03-13T07:36:36.193Z,15.80
2023-03-13T07:41:39.974Z,15.90
2023-03-13T07:46:42.360Z,16.00
2023-03-13T07:51:47.643Z,16.20
2023-03-13T07:56:50.921Z,16.20
2023-03-13T08:01:53.088Z,16.40
2023-03-13T08:06:55.434Z,16.40
2023-03-13T08:11:57.446Z,16.50
2023-03-13T08:16:59.502Z,16.50
2023-03-13T08:22:02.245Z,16.60
2023-03-13T08:27:04.204Z,16.60
2023-03-13T08:32:06.205Z,16.70
2023-03-13T08:37:08.208Z,16.70
2023-03-13T08:42:11.448Z,16.80
2023-03-13T08:47:13.524Z,16.80
2023-03-13T08:52:15.536Z,16.80
2023-03-13T08:57:17.855Z,16.90
2023-03-13T09:02:20.847Z,16.90
2023-03-13T09:07:22.865Z,16.90
2023-03-13T09:12:30.750Z,17.30
2023-03-13T09:17:33.338Z,17.10
2023-03-13T09:22:35.483Z,17.20
2023-03-13T09:27:37.536Z,17.20
2023-03-13T09:32:39.683Z,17.20
2023-03-13T09:37:41.741Z,17.20
2023-03-13T09:42:53.055Z,17.30
2023-03-13T09:47:57.648Z,17.40
2023-03-13T09:53:03.810Z,17.30
2023-03-13T09:58:21.177Z,17.40
2023-03-13T10:03:29.303Z,17.50
2023-03-13T10:08:32.453Z,17.70
2023-03-13T10:13:52.988Z,17.90
2023-03-13T10:19:09.424Z,17.90
2023-03-13T10:24:17.945Z,17.90
2023-03-13T10:29:19.883Z,17.90
2023-03-13T10:34:21.848Z,18.10
2023-03-13T10:39:25.115Z,18.10
2023-03-13T10:44:32.249Z,18.40
2023-03-13T10:49:46.107Z,18.60
2023-03-13T10:54:48.112Z,18.80
2023-03-13T10:59:50.936Z,19.00
2023-03-13T11:04:54.126Z,19.20
2023-03-13T11:10:00.243Z,19.40
2023-03-13T11:15:03.648Z,19.50
2023-03-13T11:20:14.655Z,19.80
2023-03-13T11:25:30.380Z,19.80
2023-03-13T11:30:35.243Z,19.90
2023-03-13T11:35:37.254Z,20.00
2023-03-13T11:40:44.144Z,20.20
2023-03-13T11:46:04.177Z,20.40
2023-03-13T11:51:21.156Z,20.60
2023-03-13T11:56:29.509Z,21.00
2023-03-13T12:01:37.310Z,21.30
2023-03-13T12:06:46.312Z,21.40
2023-03-13T12:11:54.363Z,21.50
2023-03-13T12:17:08.504Z,21.50
2023-03-13T12:22:19.519Z,21.70
2023-03-13T12:27:27.075Z,21.60
2023-03-13T12:32:32.046Z,21.70
2023-03-13T12:37:34.135Z,21.70
2023-03-13T12:42:45.805Z,21.70
2023-03-13T12:48:00.928Z,21.80
2023-03-13T12:53:29.197Z,21.80
2023-03-13T12:58:35.225Z,21.90
2023-03-13T13:03:39.636Z,21.90
2023-03-13T13:09:01.916Z,21.90
2023-03-13T13:14:19.116Z,21.90
2023-03-13T13:19:24.322Z,22.00
2023-03-13T13:24:40.494Z,22.40
2023-03-13T13:29:53.529Z,22.20
2023-03-13T13:35:00.800Z,22.30
2023-03-13T13:40:23.779Z,22.50
2023-03-13T13:45:30.408Z,22.70
2023-03-13T13:50:32.500Z,23.10
2023-03-13T13:55:40.498Z,23.00
2023-03-13T14:00:46.441Z,23.70
2023-03-13T14:05:51.360Z,24.00
2023-03-13T14:11:05.794Z,24.70
2023-03-13T14:16:26.803Z,25.50
2023-03-13T14:21:29.246Z,25.90
2023-03-13T14:26:31.288Z,26.10
2023-03-13T14:31:35.145Z,26.90
2023-03-13T14:37:07.360Z,27.20
2023-03-13T14:42:14.572Z,28.60
2023-03-13T14:47:16.674Z,28.90
2023-03-13T14:52:23.705Z,30.30
2023-03-13T14:57:27.442Z,31.10
2023-03-13T15:02:32.327Z,31.30
2023-03-13T15:07:37.502Z,32.00
2023-03-13T15:12:43.508Z,32.00
2023-03-13T15:17:45.947Z,31.80
2023-03-13T15:22:47.953Z,31.20
2023-03-13T15:27:50.398Z,30.90
2023-03-13T15:32:52.525Z,30.60
2023-03-13T15:37:55.460Z,29.80
2023-03-13T15:42:58.254Z,29.10
2023-03-13T15:48:00.717Z,27.00
2023-03-13T15:53:02.837Z,25.50
2023-03-13T15:58:04.864Z,24.70
2023-03-13T16:03:09.344Z,22.30
2023-03-13T16:08:34.349Z,21.60
2023-03-13T16:13:37.187Z,20.70
2023-03-13T16:18:39.205Z,20.00
2023-03-13T16:23:41.232Z,19.50
2023-03-13T16:28:43.707Z,19.10
2023-03-13T16:33:46.133Z,18.60
2023-03-13T16:38:48.757Z,18.20
2023-03-13T16:43:51.132Z,17.80
2023-03-13T16:48:53.450Z,17.60
2023-03-13T16:53:56.259Z,17.40
2023-03-13T16:58:58.492Z,17.20
2023-03-13T17:04:00.600Z,17.00
2023-03-13T17:09:03.579Z,16.90
2023-03-13T17:14:05.691Z,16.80
2023-03-13T17:19:10.481Z,16.80
2023-03-13T17:24:12.549Z,16.80
2023-03-13T17:29:16.892Z,16.80
2023-03-13T17:34:19.985Z,16.80
2023-03-13T17:39:24.302Z,16.80
2023-03-13T17:44:26.329Z,16.80
2023-03-13T17:49:30.924Z,16.80
2023-03-13T17:54:32.957Z,16.70
2023-03-13T17:59:34.985Z,16.70
2023-03-13T18:04:37.022Z,16.70
2023-03-13T18:09:39.020Z,16.60
2023-03-13T18:14:41.468Z,16.60
2023-03-13T18:19:44.200Z,16.60
2023-03-13T18:24:46.383Z,16.50
2023-03-13T18:29:49.447Z,16.50
2023-03-13T18:34:51.601Z,16.50
2023-03-13T18:39:55.750Z,16.50
2023-03-13T18:44:58.623Z,16.50
2023-03-13T18:50:00.760Z,16.60
2023-03-13T18:55:03.154Z,16.60
2023-03-13T19:00:13.307Z,16.60
2023-03-13T19:05:15.580Z,16.50
2023-03-13T19:10:24.265Z,16.30
2023-03-13T19:15:28.633Z,16.00
2023-03-13T19:20:30.735Z,15.70
2023-03-13T19:25:34.503Z,15.40
2023-03-13T19:30:36.491Z,15.40
2023-03-13T19:35:38.681Z,15.20
2023-03-13T19:40:40.740Z,15.00
2023-03-13T19:45:42.765Z,14.90
2023-03-13T19:50:45.268Z,14.80
2023-03-13T19:55:47.507Z,14.70
2023-03-13T20:00:49.669Z,14.60
2023-03-13T20:05:51.845Z,14.60
2023-03-13T20:15:56.561Z,14.70
2023-03-13T20:20:58.829Z,14.70
2023-03-13T20:26:10.484Z,14.80
2023-03-13T20:31:13.092Z,14.80
2023-03-13T20:36:16.345Z,14.80
2023-03-13T20:41:24.920Z,14.70
2023-03-13T20:46:27.370Z,14.70
2023-03-13T20:51:29.454Z,14.60
2023-03-13T20:56:31.964Z,14.60
2023-03-13T21:01:34.645Z,14.60
2023-03-13T21:06:36.684Z,14.40
2023-03-13T21:11:38.736Z,14.40
2023-03-13T21:16:40.895Z,14.40
2023-03-13T21:21:42.979Z,14.30
2023-03-13T21:26:44.958Z,14.30
2023-03-13T21:31:48.321Z,14.30
2023-03-13T21:36:50.613Z,14.20
2023-03-13T21:41:52.823Z,14.20
2023-03-13T21:46:54.913Z,14.20
2023-03-13T21:51:57.150Z,14.10
2023-03-13T21:56:59.170Z,14.20
2023-03-13T22:02:01.217Z,14.10
2023-03-13T22:07:03.902Z,14.00
2023-03-13T22:12:05.980Z,14.20
2023-03-13T22:22:10.479Z,14.20
2023-03-13T22:27:12.849Z,14.10
2023-03-13T22:32:18.179Z,14.10
2023-03-13T22:37:22.297Z,14.30
2023-03-13T22:42:24.887Z,14.20
2023-03-13T22:47:27.094Z,14.10
2023-03-13T22:52:35.442Z,14.10
2023-03-13T22:57:37.496Z,14.10
2023-03-13T23:02:39.465Z,14.10
2023-03-13T23:07:42.334Z,14.10
2023-03-13T23:12:44.363Z,14.10
2023-03-13T23:17:46.531Z,14.10
2023-03-13T23:22:50.034Z,14.10
2023-03-13T23:27:52.058Z,14.10
2023-03-13T23:32:54.185Z,14.10
2023-03-13T23:37:56.235Z,14.10
2023-03-13T23:42:58.155Z,14.10
2023-03-13T23:48:00.148Z,14.10
2023-03-13T23:53:02.479Z,14.10
2023-03-13T23:58:04.607Z,14.10
